Bamako, Mali

90.9°F / 32.7°C
Clear
Heat Index: 87°F / 30°C
Humidity: 14%
Dew Point: 35°F / 2°C
Wind: WNW at 1.3 mph / 2.1 km/h
Wind Gust: 2.5 mph / 4.0 km/h
Pressure: 29.98 in / 1015 hPa (Falling)
Visibility: -
Clouds:
Yesterday's Maximum: 92.1°F / 33.4°C
Yesterday's Minimum: 67.6°F / 19.8°C
UV: 4.0 out of 16
Sunrise:6:51 AM GMT
Sunset:6:39 PM GMT
Moon Rise:9:43 PM GMT
Moon Set:9:13 AM GMT
Moon Phase Waning Gibbous
NOAA Weather Radio
No local feed.
METAR GABS 221400Z 03007KT 330V080 CAVOK 33/M07 Q1015 NOSIG
As of: 2:17 PM GMT on February 22, 2019
Observed at: Madany TALL, Bamako, Mali

View Station's History

No Yes

Local Satellite

Current Satellite Forecast
Region Default Local
No Yes

View Full Screen WunderMap

Forecast

Current Satellite Forecast
Thursday
. High: 92° F. / 33° C.

. High: 92° F. / 33° C.

Features

Weather Apps

WunderRadio

Weather Underground Apps
Check out our wide variety of mobile and setup applications.

Weather Underground Applications

Top of Page

© Copyright 2019
The Weather Company, LLC